sensor_id;sensor_type;location;lat;lon;timestamp;P1;durP1;ratioP1;P2;durP2;ratioP2
4375;SDS011;2202;50.866;12.750;2023-12-22T00:02:19;8.17;;;3.37;;
4375;SDS011;2202;50.866;12.750;2023-12-22T00:04:46;13.23;;;3.53;;
4375;SDS011;2202;50.866;12.750;2023-12-22T00:07:14;9.90;;;3.10;;
4375;SDS011;2202;50.866;12.750;2023-12-22T00:09:41;8.50;;;3.90;;
4375;SDS011;2202;50.866;12.750;2023-12-22T00:12:08;8.80;;;3.80;;
4375;SDS011;2202;50.866;12.750;2023-12-22T00:14:35;7.70;;;3.20;;
4375;SDS011;2202;50.866;12.750;2023-12-22T00:17:02;12.40;;;3.83;;
4375;SDS011;2202;50.866;12.750;2023-12-22T00:19:29;7.00;;;3.70;;
4375;SDS011;2202;50.866;12.750;2023-12-22T00:21:56;14.53;;;4.10;;
4375;SDS011;2202;50.866;12.750;2023-12-22T00:24:25;11.43;;;3.80;;
4375;SDS011;2202;50.866;12.750;2023-12-22T00:26:51;12.10;;;3.70;;
4375;SDS011;2202;50.866;12.750;2023-12-22T00:29:18;8.40;;;3.50;;
4375;SDS011;2202;50.866;12.750;2023-12-22T00:31:45;7.17;;;3.73;;
4375;SDS011;2202;50.866;12.750;2023-12-22T00:34:12;10.13;;;2.40;;
4375;SDS011;2202;50.866;12.750;2023-12-22T00:36:39;12.83;;;4.50;;
4375;SDS011;2202;50.866;12.750;2023-12-22T00:39:06;10.93;;;4.50;;
4375;SDS011;2202;50.866;12.750;2023-12-22T00:41:35;5.77;;;3.53;;
4375;SDS011;2202;50.866;12.750;2023-12-22T00:44:02;12.07;;;4.33;;
4375;SDS011;2202;50.866;12.750;2023-12-22T00:46:28;10.60;;;3.87;;
4375;SDS011;2202;50.866;12.750;2023-12-22T00:48:55;11.23;;;4.57;;
4375;SDS011;2202;50.866;12.750;2023-12-22T00:51:22;8.13;;;4.20;;
4375;SDS011;2202;50.866;12.750;2023-12-22T00:53:49;16.83;;;4.77;;
4375;SDS011;2202;50.866;12.750;2023-12-22T00:56:16;16.30;;;4.57;;
4375;SDS011;2202;50.866;12.750;2023-12-22T00:58:44;12.13;;;5.70;;
4375;SDS011;2202;50.866;12.750;2023-12-22T01:01:11;18.40;;;4.60;;
4375;SDS011;2202;50.866;12.750;2023-12-22T01:03:38;5.63;;;3.50;;
4375;SDS011;2202;50.866;12.750;2023-12-22T01:06:05;12.97;;;3.80;;
4375;SDS011;2202;50.866;12.750;2023-12-22T01:08:32;23.03;;;4.07;;
4375;SDS011;2202;50.866;12.750;2023-12-22T01:10:59;14.40;;;5.03;;
4375;SDS011;2202;50.866;12.750;2023-12-22T01:13:25;10.87;;;5.53;;
4375;SDS011;2202;50.866;12.750;2023-12-22T01:15:54;11.33;;;4.60;;
4375;SDS011;2202;50.866;12.750;2023-12-22T01:18:21;16.70;;;4.63;;
4375;SDS011;2202;50.866;12.750;2023-12-22T01:20:50;17.77;;;5.60;;
4375;SDS011;2202;50.866;12.750;2023-12-22T01:23:17;21.33;;;5.57;;
4375;SDS011;2202;50.866;12.750;2023-12-22T01:25:44;21.90;;;4.50;;
4375;SDS011;2202;50.866;12.750;2023-12-22T01:28:11;14.90;;;4.30;;
4375;SDS011;2202;50.866;12.750;2023-12-22T01:30:37;24.87;;;5.73;;
4375;SDS011;2202;50.866;12.750;2023-12-22T01:33:06;17.70;;;4.20;;
4375;SDS011;2202;50.866;12.750;2023-12-22T01:35:33;24.97;;;5.80;;
4375;SDS011;2202;50.866;12.750;2023-12-22T01:38:00;20.07;;;5.40;;
4375;SDS011;2202;50.866;12.750;2023-12-22T01:40:26;21.50;;;5.10;;
4375;SDS011;2202;50.866;12.750;2023-12-22T01:42:53;17.00;;;4.97;;
4375;SDS011;2202;50.866;12.750;2023-12-22T01:45:20;27.20;;;5.40;;
4375;SDS011;2202;50.866;12.750;2023-12-22T01:47:47;9.23;;;3.77;;
4375;SDS011;2202;50.866;12.750;2023-12-22T01:50:15;7.77;;;3.70;;
4375;SDS011;2202;50.866;12.750;2023-12-22T01:52:43;22.13;;;6.50;;
4375;SDS011;2202;50.866;12.750;2023-12-22T01:55:11;20.93;;;5.13;;
4375;SDS011;2202;50.866;12.750;2023-12-22T01:57:39;19.73;;;4.43;;
4375;SDS011;2202;50.866;12.750;2023-12-22T02:00:07;26.73;;;5.87;;
4375;SDS011;2202;50.866;12.750;2023-12-22T02:02:35;19.40;;;5.70;;
4375;SDS011;2202;50.866;12.750;2023-12-22T02:05:03;12.90;;;3.50;;
4375;SDS011;2202;50.866;12.750;2023-12-22T02:07:32;16.90;;;5.07;;
4375;SDS011;2202;50.866;12.750;2023-12-22T02:09:59;15.77;;;4.43;;
4375;SDS011;2202;50.866;12.750;2023-12-22T02:12:28;23.97;;;5.60;;
4375;SDS011;2202;50.866;12.750;2023-12-22T02:14:55;10.30;;;3.97;;
4375;SDS011;2202;50.866;12.750;2023-12-22T02:17:23;19.77;;;4.13;;
4375;SDS011;2202;50.866;12.750;2023-12-22T02:19:55;20.10;;;5.00;;
4375;SDS011;2202;50.866;12.750;2023-12-22T02:22:23;18.30;;;5.00;;
4375;SDS011;2202;50.866;12.750;2023-12-22T02:24:52;9.17;;;4.53;;
4375;SDS011;2202;50.866;12.750;2023-12-22T02:27:22;18.67;;;5.47;;
4375;SDS011;2202;50.866;12.750;2023-12-22T02:29:54;21.27;;;5.83;;
4375;SDS011;2202;50.866;12.750;2023-12-22T02:32:30;20.13;;;4.80;;
4375;SDS011;2202;50.866;12.750;2023-12-22T02:35:00;10.73;;;3.70;;
4375;SDS011;2202;50.866;12.750;2023-12-22T02:37:32;17.63;;;5.00;;
4375;SDS011;2202;50.866;12.750;2023-12-22T02:40:02;15.97;;;3.40;;
4375;SDS011;2202;50.866;12.750;2023-12-22T02:42:30;15.17;;;5.90;;
4375;SDS011;2202;50.866;12.750;2023-12-22T02:44:57;6.60;;;2.80;;
4375;SDS011;2202;50.866;12.750;2023-12-22T02:47:24;6.70;;;3.70;;
4375;SDS011;2202;50.866;12.750;2023-12-22T02:49:52;8.80;;;3.60;;
4375;SDS011;2202;50.866;12.750;2023-12-22T02:52:19;22.10;;;4.63;;
4375;SDS011;2202;50.866;12.750;2023-12-22T02:54:46;28.57;;;5.73;;
4375;SDS011;2202;50.866;12.750;2023-12-22T02:57:15;8.20;;;3.17;;
4375;SDS011;2202;50.866;12.750;2023-12-22T02:59:41;8.60;;;3.63;;
4375;SDS011;2202;50.866;12.750;2023-12-22T03:02:08;26.60;;;5.33;;
4375;SDS011;2202;50.866;12.750;2023-12-22T03:04:35;10.67;;;3.93;;
4375;SDS011;2202;50.866;12.750;2023-12-22T03:07:02;8.80;;;3.77;;
4375;SDS011;2202;50.866;12.750;2023-12-22T03:09:29;6.40;;;3.60;;
4375;SDS011;2202;50.866;12.750;2023-12-22T03:11:57;17.97;;;4.00;;
4375;SDS011;2202;50.866;12.750;2023-12-22T03:14:28;9.30;;;3.67;;
4375;SDS011;2202;50.866;12.750;2023-12-22T03:16:55;12.70;;;3.27;;
4375;SDS011;2202;50.866;12.750;2023-12-22T03:19:22;12.00;;;4.40;;
4375;SDS011;2202;50.866;12.750;2023-12-22T03:21:49;13.93;;;4.70;;
4375;SDS011;2202;50.866;12.750;2023-12-22T03:24:16;13.00;;;4.03;;
4375;SDS011;2202;50.866;12.750;2023-12-22T03:26:44;6.20;;;3.43;;
4375;SDS011;2202;50.866;12.750;2023-12-22T03:29:11;14.20;;;3.47;;
4375;SDS011;2202;50.866;12.750;2023-12-22T03:31:39;18.17;;;4.57;;
4375;SDS011;2202;50.866;12.750;2023-12-22T03:34:06;14.80;;;3.20;;
4375;SDS011;2202;50.866;12.750;2023-12-22T03:36:33;11.73;;;4.10;;
4375;SDS011;2202;50.866;12.750;2023-12-22T03:39:00;6.63;;;2.50;;
4375;SDS011;2202;50.866;12.750;2023-12-22T03:41:28;13.20;;;4.37;;
4375;SDS011;2202;50.866;12.750;2023-12-22T03:43:55;10.23;;;3.77;;
4375;SDS011;2202;50.866;12.750;2023-12-22T03:46:22;6.40;;;4.10;;
4375;SDS011;2202;50.866;12.750;2023-12-22T03:48:50;7.90;;;3.47;;
4375;SDS011;2202;50.866;12.750;2023-12-22T03:51:17;18.37;;;4.20;;
4375;SDS011;2202;50.866;12.750;2023-12-22T03:53:44;9.73;;;2.90;;
4375;SDS011;2202;50.866;12.750;2023-12-22T03:56:11;8.40;;;2.17;;
4375;SDS011;2202;50.866;12.750;2023-12-22T03:58:38;4.80;;;1.47;;
4375;SDS011;2202;50.866;12.750;2023-12-22T04:01:05;4.70;;;1.80;;
4375;SDS011;2202;50.866;12.750;2023-12-22T04:03:32;3.87;;;1.90;;
4375;SDS011;2202;50.866;12.750;2023-12-22T04:06:02;4.47;;;1.63;;
4375;SDS011;2202;50.866;12.750;2023-12-22T04:08:30;3.20;;;2.77;;
4375;SDS011;2202;50.866;12.750;2023-12-22T04:10:57;4.27;;;2.63;;
4375;SDS011;2202;50.866;12.750;2023-12-22T04:13:23;12.63;;;2.20;;
4375;SDS011;2202;50.866;12.750;2023-12-22T04:15:50;5.17;;;1.97;;
4375;SDS011;2202;50.866;12.750;2023-12-22T04:18:17;8.90;;;3.77;;
4375;SDS011;2202;50.866;12.750;2023-12-22T04:20:44;3.60;;;2.23;;
4375;SDS011;2202;50.866;12.750;2023-12-22T04:23:12;9.30;;;3.70;;
4375;SDS011;2202;50.866;12.750;2023-12-22T04:25:39;8.27;;;3.60;;
4375;SDS011;2202;50.866;12.750;2023-12-22T04:28:06;8.40;;;3.87;;
4375;SDS011;2202;50.866;12.750;2023-12-22T04:30:33;12.97;;;4.37;;
4375;SDS011;2202;50.866;12.750;2023-12-22T04:33:00;9.20;;;3.47;;
4375;SDS011;2202;50.866;12.750;2023-12-22T04:35:27;6.07;;;3.40;;
4375;SDS011;2202;50.866;12.750;2023-12-22T04:37:54;8.67;;;3.63;;
4375;SDS011;2202;50.866;12.750;2023-12-22T04:40:22;13.37;;;3.33;;
4375;SDS011;2202;50.866;12.750;2023-12-22T04:42:49;5.10;;;2.90;;
4375;SDS011;2202;50.866;12.750;2023-12-22T04:45:17;3.87;;;2.73;;
4375;SDS011;2202;50.866;12.750;2023-12-22T04:47:43;3.90;;;2.27;;
4375;SDS011;2202;50.866;12.750;2023-12-22T04:50:10;10.57;;;3.13;;
4375;SDS011;2202;50.866;12.750;2023-12-22T04:52:37;5.60;;;2.77;;
4375;SDS011;2202;50.866;12.750;2023-12-22T04:55:04;10.43;;;2.60;;
4375;SDS011;2202;50.866;12.750;2023-12-22T04:57:33;6.43;;;2.70;;
4375;SDS011;2202;50.866;12.750;2023-12-22T05:00:00;6.30;;;2.60;;
4375;SDS011;2202;50.866;12.750;2023-12-22T05:02:27;10.40;;;2.00;;
4375;SDS011;2202;50.866;12.750;2023-12-22T05:04:54;4.93;;;2.20;;
4375;SDS011;2202;50.866;12.750;2023-12-22T05:07:21;7.50;;;3.00;;
4375;SDS011;2202;50.866;12.750;2023-12-22T05:09:48;6.60;;;2.70;;
4375;SDS011;2202;50.866;12.750;2023-12-22T05:12:17;6.90;;;3.07;;
4375;SDS011;2202;50.866;12.750;2023-12-22T05:14:46;5.43;;;2.43;;
4375;SDS011;2202;50.866;12.750;2023-12-22T05:17:13;16.47;;;2.93;;
4375;SDS011;2202;50.866;12.750;2023-12-22T05:19:39;9.07;;;3.10;;
4375;SDS011;2202;50.866;12.750;2023-12-22T05:22:06;16.83;;;3.33;;
4375;SDS011;2202;50.866;12.750;2023-12-22T05:24:33;7.73;;;3.00;;
4375;SDS011;2202;50.866;12.750;2023-12-22T05:27:00;6.57;;;3.00;;
4375;SDS011;2202;50.866;12.750;2023-12-22T05:29:28;8.10;;;2.77;;
4375;SDS011;2202;50.866;12.750;2023-12-22T05:31:56;4.93;;;2.90;;
4375;SDS011;2202;50.866;12.750;2023-12-22T05:34:23;4.57;;;2.27;;
4375;SDS011;2202;50.866;12.750;2023-12-22T05:36:50;3.80;;;1.83;;
4375;SDS011;2202;50.866;12.750;2023-12-22T05:39:17;13.43;;;4.20;;
4375;SDS011;2202;50.866;12.750;2023-12-22T05:41:43;5.13;;;1.83;;
4375;SDS011;2202;50.866;12.750;2023-12-22T05:44:10;3.57;;;2.10;;
4375;SDS011;2202;50.866;12.750;2023-12-22T05:46:37;3.50;;;2.50;;
4375;SDS011;2202;50.866;12.750;2023-12-22T05:49:06;5.63;;;2.07;;
4375;SDS011;2202;50.866;12.750;2023-12-22T05:51:36;8.33;;;2.60;;
4375;SDS011;2202;50.866;12.750;2023-12-22T05:54:04;2.47;;;1.80;;
4375;SDS011;2202;50.866;12.750;2023-12-22T05:56:31;5.10;;;2.27;;
4375;SDS011;2202;50.866;12.750;2023-12-22T05:58:58;3.50;;;1.90;;
4375;SDS011;2202;50.866;12.750;2023-12-22T06:01:26;2.20;;;2.00;;
4375;SDS011;2202;50.866;12.750;2023-12-22T06:03:52;3.70;;;1.60;;
4375;SDS011;2202;50.866;12.750;2023-12-22T06:06:21;2.83;;;1.70;;
4375;SDS011;2202;50.866;12.750;2023-12-22T06:08:52;6.30;;;2.20;;
4375;SDS011;2202;50.866;12.750;2023-12-22T06:11:19;5.10;;;3.17;;
4375;SDS011;2202;50.866;12.750;2023-12-22T06:13:47;5.80;;;2.30;;
4375;SDS011;2202;50.866;12.750;2023-12-22T06:16:14;7.93;;;2.27;;
4375;SDS011;2202;50.866;12.750;2023-12-22T06:18:43;7.57;;;4.97;;
4375;SDS011;2202;50.866;12.750;2023-12-22T06:21:10;10.53;;;3.03;;
4375;SDS011;2202;50.866;12.750;2023-12-22T06:23:38;8.57;;;3.60;;
4375;SDS011;2202;50.866;12.750;2023-12-22T06:26:08;10.43;;;3.23;;
4375;SDS011;2202;50.866;12.750;2023-12-22T06:28:35;2.70;;;1.57;;
4375;SDS011;2202;50.866;12.750;2023-12-22T06:31:03;5.07;;;2.20;;
4375;SDS011;2202;50.866;12.750;2023-12-22T06:33:30;3.23;;;2.23;;
4375;SDS011;2202;50.866;12.750;2023-12-22T06:35:57;4.23;;;2.43;;
4375;SDS011;2202;50.866;12.750;2023-12-22T06:38:24;7.97;;;2.37;;
4375;SDS011;2202;50.866;12.750;2023-12-22T06:40:52;7.07;;;2.70;;
4375;SDS011;2202;50.866;12.750;2023-12-22T06:43:20;6.67;;;2.67;;
4375;SDS011;2202;50.866;12.750;2023-12-22T06:45:47;4.93;;;2.30;;
4375;SDS011;2202;50.866;12.750;2023-12-22T06:48:14;3.60;;;2.60;;
4375;SDS011;2202;50.866;12.750;2023-12-22T06:50:41;7.87;;;3.50;;
4375;SDS011;2202;50.866;12.750;2023-12-22T06:53:10;5.33;;;2.70;;
4375;SDS011;2202;50.866;12.750;2023-12-22T06:55:36;8.10;;;3.53;;
4375;SDS011;2202;50.866;12.750;2023-12-22T06:58:05;6.50;;;2.73;;
4375;SDS011;2202;50.866;12.750;2023-12-22T07:00:31;8.87;;;3.20;;
4375;SDS011;2202;50.866;12.750;2023-12-22T07:02:58;8.93;;;3.67;;
4375;SDS011;2202;50.866;12.750;2023-12-22T07:05:32;10.47;;;3.30;;
4375;SDS011;2202;50.866;12.750;2023-12-22T07:08:01;4.37;;;2.70;;
4375;SDS011;2202;50.866;12.750;2023-12-22T07:10:29;9.50;;;3.03;;
4375;SDS011;2202;50.866;12.750;2023-12-22T07:12:56;6.63;;;2.53;;
4375;SDS011;2202;50.866;12.750;2023-12-22T07:15:24;6.80;;;2.33;;
4375;SDS011;2202;50.866;12.750;2023-12-22T07:17:53;9.47;;;3.23;;
4375;SDS011;2202;50.866;12.750;2023-12-22T07:20:20;5.37;;;2.10;;
4375;SDS011;2202;50.866;12.750;2023-12-22T07:22:47;8.73;;;2.53;;
4375;SDS011;2202;50.866;12.750;2023-12-22T07:25:14;6.50;;;3.40;;
4375;SDS011;2202;50.866;12.750;2023-12-22T07:27:41;7.37;;;2.80;;
4375;SDS011;2202;50.866;12.750;2023-12-22T07:30:08;6.20;;;2.43;;
4375;SDS011;2202;50.866;12.750;2023-12-22T07:32:42;8.83;;;1.80;;
4375;SDS011;2202;50.866;12.750;2023-12-22T07:35:10;10.40;;;2.57;;
4375;SDS011;2202;50.866;12.750;2023-12-22T07:37:37;2.43;;;2.23;;
4375;SDS011;2202;50.866;12.750;2023-12-22T07:40:04;9.33;;;2.90;;
4375;SDS011;2202;50.866;12.750;2023-12-22T07:42:32;5.83;;;3.20;;
4375;SDS011;2202;50.866;12.750;2023-12-22T07:44:59;5.20;;;2.67;;
4375;SDS011;2202;50.866;12.750;2023-12-22T07:47:26;2.30;;;2.10;;
4375;SDS011;2202;50.866;12.750;2023-12-22T07:49:55;5.30;;;2.80;;
4375;SDS011;2202;50.866;12.750;2023-12-22T07:52:21;1.50;;;1.40;;
4375;SDS011;2202;50.866;12.750;2023-12-22T07:54:48;1.60;;;1.50;;
4375;SDS011;2202;50.866;12.750;2023-12-22T07:57:16;2.90;;;1.70;;
4375;SDS011;2202;50.866;12.750;2023-12-22T07:59:44;2.73;;;1.63;;
4375;SDS011;2202;50.866;12.750;2023-12-22T08:02:10;6.03;;;2.20;;
4375;SDS011;2202;50.866;12.750;2023-12-22T08:04:37;2.50;;;1.50;;
4375;SDS011;2202;50.866;12.750;2023-12-22T08:07:06;7.03;;;2.90;;
4375;SDS011;2202;50.866;12.750;2023-12-22T08:09:32;3.50;;;1.80;;
4375;SDS011;2202;50.866;12.750;2023-12-22T08:11:59;2.43;;;1.80;;
4375;SDS011;2202;50.866;12.750;2023-12-22T08:14:26;6.87;;;4.53;;
4375;SDS011;2202;50.866;12.750;2023-12-22T08:16:53;3.53;;;2.10;;
4375;SDS011;2202;50.866;12.750;2023-12-22T08:19:20;8.20;;;2.30;;
4375;SDS011;2202;50.866;12.750;2023-12-22T08:21:47;5.63;;;2.57;;
4375;SDS011;2202;50.866;12.750;2023-12-22T08:24:15;4.90;;;2.40;;
4375;SDS011;2202;50.866;12.750;2023-12-22T08:26:42;13.03;;;2.50;;
4375;SDS011;2202;50.866;12.750;2023-12-22T08:29:09;5.33;;;1.80;;
4375;SDS011;2202;50.866;12.750;2023-12-22T08:31:36;6.20;;;2.43;;
4375;SDS011;2202;50.866;12.750;2023-12-22T08:34:03;5.00;;;2.60;;
4375;SDS011;2202;50.866;12.750;2023-12-22T08:36:30;3.37;;;2.03;;
4375;SDS011;2202;50.866;12.750;2023-12-22T08:38:57;2.70;;;2.07;;
4375;SDS011;2202;50.866;12.750;2023-12-22T08:41:25;3.43;;;1.90;;
4375;SDS011;2202;50.866;12.750;2023-12-22T08:43:53;4.67;;;2.50;;
4375;SDS011;2202;50.866;12.750;2023-12-22T08:46:20;2.87;;;1.90;;
4375;SDS011;2202;50.866;12.750;2023-12-22T08:48:46;1.70;;;1.60;;
4375;SDS011;2202;50.866;12.750;2023-12-22T08:51:13;1.43;;;1.33;;
4375;SDS011;2202;50.866;12.750;2023-12-22T08:53:43;1.40;;;1.30;;
4375;SDS011;2202;50.866;12.750;2023-12-22T08:56:10;2.70;;;1.63;;
4375;SDS011;2202;50.866;12.750;2023-12-22T08:58:38;4.90;;;2.97;;
4375;SDS011;2202;50.866;12.750;2023-12-22T09:01:07;1.60;;;1.50;;
4375;SDS011;2202;50.866;12.750;2023-12-22T09:03:34;1.90;;;1.43;;
4375;SDS011;2202;50.866;12.750;2023-12-22T09:06:08;1.30;;;1.13;;
4375;SDS011;2202;50.866;12.750;2023-12-22T09:08:35;4.43;;;1.70;;
4375;SDS011;2202;50.866;12.750;2023-12-22T09:11:02;2.90;;;2.60;;
4375;SDS011;2202;50.866;12.750;2023-12-22T09:13:29;1.80;;;1.60;;
4375;SDS011;2202;50.866;12.750;2023-12-22T09:15:58;2.67;;;2.20;;
4375;SDS011;2202;50.866;12.750;2023-12-22T09:21:00;2.03;;;1.60;;
4375;SDS011;2202;50.866;12.750;2023-12-22T09:23:27;1.70;;;1.60;;
4375;SDS011;2202;50.866;12.750;2023-12-22T09:25:54;2.10;;;1.90;;
4375;SDS011;2202;50.866;12.750;2023-12-22T09:28:21;2.30;;;2.17;;
4375;SDS011;2202;50.866;12.750;2023-12-22T09:30:48;2.33;;;1.57;;
4375;SDS011;2202;50.866;12.750;2023-12-22T09:33:16;2.87;;;1.70;;
4375;SDS011;2202;50.866;12.750;2023-12-22T09:35:44;1.97;;;1.87;;
4375;SDS011;2202;50.866;12.750;2023-12-22T09:38:11;2.90;;;1.70;;
4375;SDS011;2202;50.866;12.750;2023-12-22T09:40:38;1.53;;;1.30;;
4375;SDS011;2202;50.866;12.750;2023-12-22T09:43:07;2.13;;;2.00;;
4375;SDS011;2202;50.866;12.750;2023-12-22T09:45:35;2.00;;;1.90;;
4375;SDS011;2202;50.866;12.750;2023-12-22T09:48:04;2.00;;;1.90;;
4375;SDS011;2202;50.866;12.750;2023-12-22T09:50:34;2.63;;;2.43;;
4375;SDS011;2202;50.866;12.750;2023-12-22T09:53:02;2.40;;;2.20;;
4375;SDS011;2202;50.866;12.750;2023-12-22T09:55:32;5.70;;;2.97;;
4375;SDS011;2202;50.866;12.750;2023-12-22T09:58:00;3.03;;;2.83;;
4375;SDS011;2202;50.866;12.750;2023-12-22T10:00:28;3.00;;;2.70;;
4375;SDS011;2202;50.866;12.750;2023-12-22T10:02:57;4.33;;;3.50;;
4375;SDS011;2202;50.866;12.750;2023-12-22T10:05:24;10.33;;;4.23;;
4375;SDS011;2202;50.866;12.750;2023-12-22T10:07:53;4.20;;;3.37;;
4375;SDS011;2202;50.866;12.750;2023-12-22T10:10:21;7.23;;;3.90;;
4375;SDS011;2202;50.866;12.750;2023-12-22T10:12:49;7.57;;;3.60;;
4375;SDS011;2202;50.866;12.750;2023-12-22T10:15:27;6.37;;;4.40;;
4375;SDS011;2202;50.866;12.750;2023-12-22T10:17:54;3.17;;;2.83;;
4375;SDS011;2202;50.866;12.750;2023-12-22T10:20:22;5.73;;;3.23;;
4375;SDS011;2202;50.866;12.750;2023-12-22T10:22:49;3.60;;;3.20;;
4375;SDS011;2202;50.866;12.750;2023-12-22T10:25:19;4.47;;;4.17;;
4375;SDS011;2202;50.866;12.750;2023-12-22T10:27:47;4.20;;;3.80;;
4375;SDS011;2202;50.866;12.750;2023-12-22T10:30:17;4.90;;;2.63;;
4375;SDS011;2202;50.866;12.750;2023-12-22T10:32:44;6.27;;;3.17;;
4375;SDS011;2202;50.866;12.750;2023-12-22T10:35:11;6.37;;;3.80;;
4375;SDS011;2202;50.866;12.750;2023-12-22T10:37:38;12.37;;;3.50;;
4375;SDS011;2202;50.866;12.750;2023-12-22T10:40:06;5.73;;;4.03;;
4375;SDS011;2202;50.866;12.750;2023-12-22T10:42:37;4.87;;;3.23;;
4375;SDS011;2202;50.866;12.750;2023-12-22T10:45:06;13.10;;;4.20;;
4375;SDS011;2202;50.866;12.750;2023-12-22T10:47:34;7.90;;;4.33;;
4375;SDS011;2202;50.866;12.750;2023-12-22T10:50:01;6.10;;;3.77;;
4375;SDS011;2202;50.866;12.750;2023-12-22T10:52:29;9.53;;;4.87;;
4375;SDS011;2202;50.866;12.750;2023-12-22T10:54:56;10.07;;;3.30;;
4375;SDS011;2202;50.866;12.750;2023-12-22T10:57:24;11.13;;;4.07;;
4375;SDS011;2202;50.866;12.750;2023-12-22T10:59:53;11.53;;;3.30;;
4375;SDS011;2202;50.866;12.750;2023-12-22T11:02:23;6.87;;;3.23;;
4375;SDS011;2202;50.866;12.750;2023-12-22T11:04:56;5.40;;;3.57;;
4375;SDS011;2202;50.866;12.750;2023-12-22T11:07:26;8.70;;;2.93;;
4375;SDS011;2202;50.866;12.750;2023-12-22T11:09:55;5.67;;;2.93;;
4375;SDS011;2202;50.866;12.750;2023-12-22T11:12:23;8.00;;;3.20;;
4375;SDS011;2202;50.866;12.750;2023-12-22T11:14:54;16.97;;;3.43;;
4375;SDS011;2202;50.866;12.750;2023-12-22T11:17:23;6.57;;;4.73;;
4375;SDS011;2202;50.866;12.750;2023-12-22T11:19:52;19.33;;;4.10;;
4375;SDS011;2202;50.866;12.750;2023-12-22T11:22:20;8.47;;;2.87;;
4375;SDS011;2202;50.866;12.750;2023-12-22T11:24:48;8.47;;;3.30;;
4375;SDS011;2202;50.866;12.750;2023-12-22T11:27:16;18.43;;;3.63;;
4375;SDS011;2202;50.866;12.750;2023-12-22T11:29:44;8.27;;;2.80;;
4375;SDS011;2202;50.866;12.750;2023-12-22T11:32:15;9.03;;;3.03;;
4375;SDS011;2202;50.866;12.750;2023-12-22T11:34:42;11.30;;;3.20;;
4375;SDS011;2202;50.866;12.750;2023-12-22T11:37:10;10.33;;;3.57;;
4375;SDS011;2202;50.866;12.750;2023-12-22T11:39:38;10.83;;;3.10;;
4375;SDS011;2202;50.866;12.750;2023-12-22T11:42:06;7.83;;;2.80;;
4375;SDS011;2202;50.866;12.750;2023-12-22T11:44:35;6.03;;;3.43;;
4375;SDS011;2202;50.866;12.750;2023-12-22T11:47:03;6.83;;;3.30;;
4375;SDS011;2202;50.866;12.750;2023-12-22T11:49:35;5.83;;;2.53;;
4375;SDS011;2202;50.866;12.750;2023-12-22T11:52:12;16.57;;;3.43;;
4375;SDS011;2202;50.866;12.750;2023-12-22T11:54:43;7.77;;;3.03;;
4375;SDS011;2202;50.866;12.750;2023-12-22T11:59:56;10.33;;;3.17;;
4375;SDS011;2202;50.866;12.750;2023-12-22T12:02:23;8.43;;;3.57;;
4375;SDS011;2202;50.866;12.750;2023-12-22T12:04:52;7.53;;;2.87;;
4375;SDS011;2202;50.866;12.750;2023-12-22T12:07:38;6.90;;;2.90;;
4375;SDS011;2202;50.866;12.750;2023-12-22T12:10:07;10.10;;;2.70;;
4375;SDS011;2202;50.866;12.750;2023-12-22T12:12:34;6.20;;;2.17;;
4375;SDS011;2202;50.866;12.750;2023-12-22T12:15:09;8.03;;;2.50;;
4375;SDS011;2202;50.866;12.750;2023-12-22T12:17:39;6.23;;;2.20;;
4375;SDS011;2202;50.866;12.750;2023-12-22T12:20:09;5.30;;;2.37;;
4375;SDS011;2202;50.866;12.750;2023-12-22T12:22:37;5.93;;;2.27;;
4375;SDS011;2202;50.866;12.750;2023-12-22T12:25:06;6.57;;;2.40;;
4375;SDS011;2202;50.866;12.750;2023-12-22T12:27:35;4.10;;;2.90;;
4375;SDS011;2202;50.866;12.750;2023-12-22T12:30:07;4.80;;;2.93;;
4375;SDS011;2202;50.866;12.750;2023-12-22T12:32:39;4.60;;;2.23;;
4375;SDS011;2202;50.866;12.750;2023-12-22T12:35:09;10.03;;;2.37;;
4375;SDS011;2202;50.866;12.750;2023-12-22T12:37:36;2.40;;;1.90;;
4375;SDS011;2202;50.866;12.750;2023-12-22T12:40:04;7.33;;;2.50;;
4375;SDS011;2202;50.866;12.750;2023-12-22T12:42:34;6.03;;;2.53;;
4375;SDS011;2202;50.866;12.750;2023-12-22T12:45:02;8.73;;;1.97;;
4375;SDS011;2202;50.866;12.750;2023-12-22T12:47:30;3.77;;;3.17;;
4375;SDS011;2202;50.866;12.750;2023-12-22T12:49:57;6.90;;;3.20;;
4375;SDS011;2202;50.866;12.750;2023-12-22T12:52:26;6.93;;;2.93;;
4375;SDS011;2202;50.866;12.750;2023-12-22T12:54:53;9.90;;;2.33;;
4375;SDS011;2202;50.866;12.750;2023-12-22T12:57:21;8.03;;;3.00;;
4375;SDS011;2202;50.866;12.750;2023-12-22T12:59:48;8.07;;;3.93;;
4375;SDS011;2202;50.866;12.750;2023-12-22T13:02:16;3.17;;;2.73;;
4375;SDS011;2202;50.866;12.750;2023-12-22T13:04:44;4.07;;;3.23;;
4375;SDS011;2202;50.866;12.750;2023-12-22T13:07:11;6.40;;;4.80;;
4375;SDS011;2202;50.866;12.750;2023-12-22T13:09:40;8.30;;;4.57;;
4375;SDS011;2202;50.866;12.750;2023-12-22T13:12:08;12.93;;;5.27;;
4375;SDS011;2202;50.866;12.750;2023-12-22T13:14:35;6.93;;;3.00;;
4375;SDS011;2202;50.866;12.750;2023-12-22T13:17:02;3.83;;;2.10;;
4375;SDS011;2202;50.866;12.750;2023-12-22T13:19:31;3.63;;;2.90;;
4375;SDS011;2202;50.866;12.750;2023-12-22T13:21:58;2.83;;;2.30;;
4375;SDS011;2202;50.866;12.750;2023-12-22T13:24:25;3.03;;;1.77;;
4375;SDS011;2202;50.866;12.750;2023-12-22T13:27:00;2.53;;;1.60;;
4375;SDS011;2202;50.866;12.750;2023-12-22T13:29:28;4.10;;;3.30;;
4375;SDS011;2202;50.866;12.750;2023-12-22T13:31:56;2.00;;;1.70;;
4375;SDS011;2202;50.866;12.750;2023-12-22T13:34:23;1.97;;;1.50;;
4375;SDS011;2202;50.866;12.750;2023-12-22T13:36:50;2.63;;;1.83;;
4375;SDS011;2202;50.866;12.750;2023-12-22T13:39:18;3.20;;;1.60;;
4375;SDS011;2202;50.866;12.750;2023-12-22T13:41:53;3.40;;;1.47;;
4375;SDS011;2202;50.866;12.750;2023-12-22T13:44:21;1.87;;;1.30;;
4375;SDS011;2202;50.866;12.750;2023-12-22T13:46:48;1.50;;;1.37;;
4375;SDS011;2202;50.866;12.750;2023-12-22T13:49:15;1.60;;;1.23;;
4375;SDS011;2202;50.866;12.750;2023-12-22T13:51:42;2.00;;;1.60;;
4375;SDS011;2202;50.866;12.750;2023-12-22T13:54:12;4.70;;;2.03;;
4375;SDS011;2202;50.866;12.750;2023-12-22T13:56:39;1.73;;;1.60;;
4375;SDS011;2202;50.866;12.750;2023-12-22T13:59:07;5.17;;;2.20;;
4375;SDS011;2202;50.866;12.750;2023-12-22T14:01:36;2.20;;;2.10;;
4375;SDS011;2202;50.866;12.750;2023-12-22T14:04:03;2.77;;;1.43;;
4375;SDS011;2202;50.866;12.750;2023-12-22T14:06:30;4.77;;;2.00;;
4375;SDS011;2202;50.866;12.750;2023-12-22T14:08:57;1.40;;;1.20;;
4375;SDS011;2202;50.866;12.750;2023-12-22T14:11:24;1.50;;;1.40;;
4375;SDS011;2202;50.866;12.750;2023-12-22T14:13:51;4.83;;;1.80;;
4375;SDS011;2202;50.866;12.750;2023-12-22T14:16:18;2.77;;;1.80;;
4375;SDS011;2202;50.866;12.750;2023-12-22T14:18:46;1.60;;;1.50;;
4375;SDS011;2202;50.866;12.750;2023-12-22T14:21:13;2.23;;;2.03;;
4375;SDS011;2202;50.866;12.750;2023-12-22T14:23:41;10.60;;;5.33;;
4375;SDS011;2202;50.866;12.750;2023-12-22T14:26:08;3.00;;;2.40;;
4375;SDS011;2202;50.866;12.750;2023-12-22T14:28:34;3.37;;;1.40;;
4375;SDS011;2202;50.866;12.750;2023-12-22T14:31:01;6.60;;;2.27;;
4375;SDS011;2202;50.866;12.750;2023-12-22T14:33:28;3.67;;;2.60;;
4375;SDS011;2202;50.866;12.750;2023-12-22T14:35:57;2.13;;;1.97;;
4375;SDS011;2202;50.866;12.750;2023-12-22T14:38:23;1.67;;;1.57;;
4375;SDS011;2202;50.866;12.750;2023-12-22T14:40:50;3.60;;;2.47;;
4375;SDS011;2202;50.866;12.750;2023-12-22T14:43:17;9.70;;;2.23;;
4375;SDS011;2202;50.866;12.750;2023-12-22T14:45:44;2.73;;;2.30;;
4375;SDS011;2202;50.866;12.750;2023-12-22T14:48:11;1.70;;;1.60;;
4375;SDS011;2202;50.866;12.750;2023-12-22T14:50:38;1.90;;;1.80;;
4375;SDS011;2202;50.866;12.750;2023-12-22T14:53:06;5.70;;;2.00;;
4375;SDS011;2202;50.866;12.750;2023-12-22T14:55:33;5.90;;;1.53;;
4375;SDS011;2202;50.866;12.750;2023-12-22T14:58:00;7.73;;;2.10;;
4375;SDS011;2202;50.866;12.750;2023-12-22T15:00:28;6.90;;;4.83;;
4375;SDS011;2202;50.866;12.750;2023-12-22T15:02:55;5.83;;;2.90;;
4375;SDS011;2202;50.866;12.750;2023-12-22T15:05:22;4.30;;;4.00;;
4375;SDS011;2202;50.866;12.750;2023-12-22T15:07:54;4.43;;;4.03;;